Dixon, Iowa
Current Conditions -  °F | °C
As of 11:52 AM on Friday 24 Oct 2014 (Local Time) from KDVN Reporting Station
Scattered Clouds Scattered Clouds  
Wind Chill: 58°   Ceiling: Unl
Heat Index: 58°   Visibility: 7mi
Dew Point: 52°   Wind: 8mph
Humidity: 81%   Direction: 180°S
Pressure: 30.05"   Gusts: NA
Location:  41.74°N, 90.78°W
Report Text: KDVN 241652Z AUTO 18007KT 7SM SCT006 14/11 A3005 RMK AO2 SLP178 T01440111 TSNO
Loading
Personal Weather Stations






























Interactive Weather Map New forecast layout! Learn more

10-Day Weather Forecast

Advertisements
Track Severe Weather on mobile